sensor_id;sensor_type;location;lat;lon;timestamp;pressure;altitude;pressure_sealevel;temperature;humidity
70781;BME280;72716;48.814;2.126;2024-03-07T11:22:46;100285.84;;;13.45;100.00
70781;BME280;72716;48.814;2.126;2024-03-07T11:25:11;100284.09;;;14.04;100.00
70781;BME280;72716;48.814;2.126;2024-03-07T11:27:37;100278.34;;;13.80;100.00
70781;BME280;72716;48.814;2.126;2024-03-07T11:30:09;100280.59;;;13.48;100.00
70781;BME280;72716;48.814;2.126;2024-03-07T11:32:38;100277.63;;;14.24;100.00
70781;BME280;72716;48.814;2.126;2024-03-07T11:35:04;100270.22;;;13.38;100.00
70781;BME280;72716;48.814;2.126;2024-03-07T11:37:40;100272.56;;;12.95;100.00
70781;BME280;72716;48.814;2.126;2024-03-07T11:40:10;100252.72;;;12.72;100.00
70781;BME280;72716;48.814;2.126;2024-03-07T11:42:44;100249.03;;;12.07;100.00
70781;BME280;72716;48.814;2.126;2024-03-07T11:45:11;100248.88;;;12.24;100.00
70781;BME280;72716;48.814;2.126;2024-03-07T11:47:53;100248.41;;;11.75;100.00
70781;BME280;72716;48.814;2.126;2024-03-07T11:50:28;100238.69;;;13.93;100.00
70781;BME280;72716;48.814;2.126;2024-03-07T11:52:53;100237.25;;;13.76;100.00
70781;BME280;72716;48.814;2.126;2024-03-07T11:55:23;100234.97;;;13.51;100.00
70781;BME280;72716;48.814;2.126;2024-03-07T11:57:49;100228.75;;;14.11;100.00
70781;BME280;72716;48.814;2.126;2024-03-07T12:00:18;100225.00;;;14.67;100.00
70781;BME280;72716;48.814;2.126;2024-03-07T12:02:43;100213.69;;;15.04;100.00
70781;BME280;72716;48.814;2.126;2024-03-07T12:05:09;100208.28;;;14.68;100.00
70781;BME280;72716;48.814;2.126;2024-03-07T12:07:35;100191.66;;;15.44;100.00
70781;BME280;72716;48.814;2.126;2024-03-07T12:10:01;100201.50;;;15.73;100.00
70781;BME280;72716;48.814;2.126;2024-03-07T12:12:29;100186.81;;;15.26;100.00
70781;BME280;72716;48.814;2.126;2024-03-07T12:14:55;100185.19;;;14.83;100.00
70781;BME280;72716;48.814;2.126;2024-03-07T12:17:21;100177.66;;;15.05;100.00
70781;BME280;72716;48.814;2.126;2024-03-07T12:19:47;100183.59;;;14.74;100.00
70781;BME280;72716;48.814;2.126;2024-03-07T12:22:13;100177.59;;;15.45;100.00
70781;BME280;72716;48.814;2.126;2024-03-07T12:24:39;100171.06;;;15.60;100.00
70781;BME280;72716;48.814;2.126;2024-03-07T12:27:11;100177.28;;;14.40;100.00
70781;BME280;72716;48.814;2.126;2024-03-07T12:29:40;100169.53;;;14.32;100.00
70781;BME280;72716;48.814;2.126;2024-03-07T12:32:09;100162.59;;;14.29;100.00
70781;BME280;72716;48.814;2.126;2024-03-07T12:34:39;100157.59;;;14.99;100.00
70781;BME280;72716;48.814;2.126;2024-03-07T12:37:06;100151.94;;;14.75;100.00
70781;BME280;72716;48.814;2.126;2024-03-07T12:39:33;100150.16;;;14.77;100.00
70781;BME280;72716;48.814;2.126;2024-03-07T12:42:04;100141.16;;;15.26;100.00
70781;BME280;72716;48.814;2.126;2024-03-07T12:44:45;100140.91;;;15.35;100.00
70781;BME280;72716;48.814;2.126;2024-03-07T12:47:12;100137.84;;;15.86;100.00
70781;BME280;72716;48.814;2.126;2024-03-07T12:49:38;100143.84;;;16.24;100.00
70781;BME280;72716;48.814;2.126;2024-03-07T12:52:04;100139.47;;;16.23;100.00
70781;BME280;72716;48.814;2.126;2024-03-07T12:54:31;100114.28;;;15.80;93.75
70781;BME280;72716;48.814;2.126;2024-03-07T12:56:56;100121.56;;;15.36;98.61
70781;BME280;72716;48.814;2.126;2024-03-07T12:59:21;100117.25;;;16.00;100.00
70781;BME280;72716;48.814;2.126;2024-03-07T13:01:49;100114.09;;;15.86;98.28
70781;BME280;72716;48.814;2.126;2024-03-07T13:04:15;100109.31;;;16.00;98.15
70781;BME280;72716;48.814;2.126;2024-03-07T13:06:41;100105.63;;;15.41;99.02
70781;BME280;72716;48.814;2.126;2024-03-07T13:09:11;100100.59;;;16.29;97.90
70781;BME280;72716;48.814;2.126;2024-03-07T13:11:40;100091.59;;;16.93;90.81
70781;BME280;72716;48.814;2.126;2024-03-07T13:14:13;100093.38;;;16.05;87.75
70781;BME280;72716;48.814;2.126;2024-03-07T13:16:39;100082.38;;;15.56;90.03
70781;BME280;72716;48.814;2.126;2024-03-07T13:19:04;100086.31;;;16.36;91.30
70781;BME280;72716;48.814;2.126;2024-03-07T13:21:33;100082.09;;;15.66;90.83
70781;BME280;72716;48.814;2.126;2024-03-07T13:24:01;100074.94;;;15.37;94.31
70781;BME280;72716;48.814;2.126;2024-03-07T13:26:27;100078.06;;;15.85;88.43
70781;BME280;72716;48.814;2.126;2024-03-07T13:28:55;100070.31;;;15.78;91.77
70781;BME280;72716;48.814;2.126;2024-03-07T13:31:21;100071.38;;;16.05;91.26
70781;BME280;72716;48.814;2.126;2024-03-07T13:33:48;100065.06;;;16.10;90.86
70781;BME280;72716;48.814;2.126;2024-03-07T13:36:16;100049.81;;;16.78;83.39
70781;BME280;72716;48.814;2.126;2024-03-07T13:38:49;100059.53;;;17.03;82.45
70781;BME280;72716;48.814;2.126;2024-03-07T13:41:14;100057.63;;;16.23;84.74
70781;BME280;72716;48.814;2.126;2024-03-07T13:43:39;100048.34;;;16.10;84.34
70781;BME280;72716;48.814;2.126;2024-03-07T13:46:05;100044.13;;;15.72;85.61
70781;BME280;72716;48.814;2.126;2024-03-07T13:48:31;100042.09;;;16.14;82.18
70781;BME280;72716;48.814;2.126;2024-03-07T13:50:58;100034.63;;;16.56;90.29
70781;BME280;72716;48.814;2.126;2024-03-07T13:53:26;100029.84;;;16.11;83.35
70781;BME280;72716;48.814;2.126;2024-03-07T13:56:29;100012.56;;;15.69;82.59
70781;BME280;72716;48.814;2.126;2024-03-07T14:04:32;100001.50;;;15.24;81.18
70781;BME280;72716;48.814;2.126;2024-03-07T14:10:18;99995.06;;;15.35;83.01
70781;BME280;72716;48.814;2.126;2024-03-07T14:13:03;99998.47;;;16.02;84.34
70781;BME280;72716;48.814;2.126;2024-03-07T14:27:18;99987.78;;;16.34;80.58
70781;BME280;72716;48.814;2.126;2024-03-07T14:30:24;99983.44;;;16.60;78.39
70781;BME280;72716;48.814;2.126;2024-03-07T14:32:59;99979.50;;;17.25;78.30
70781;BME280;72716;48.814;2.126;2024-03-07T14:35:32;99973.97;;;16.53;78.77
70781;BME280;72716;48.814;2.126;2024-03-07T14:38:22;99969.03;;;16.42;75.23
70781;BME280;72716;48.814;2.126;2024-03-07T14:40:52;99974.75;;;16.56;74.42
70781;BME280;72716;48.814;2.126;2024-03-07T14:43:19;99974.34;;;16.13;79.42
70781;BME280;72716;48.814;2.126;2024-03-07T14:45:45;99973.88;;;16.56;78.71
70781;BME280;72716;48.814;2.126;2024-03-07T14:48:12;99964.22;;;16.28;75.82
70781;BME280;72716;48.814;2.126;2024-03-07T14:50:41;99964.91;;;15.75;79.98
70781;BME280;72716;48.814;2.126;2024-03-07T14:53:07;99963.28;;;14.71;87.23
70781;BME280;72716;48.814;2.126;2024-03-07T14:55:33;99964.38;;;14.64;85.94
70781;BME280;72716;48.814;2.126;2024-03-07T14:58:00;99961.53;;;14.72;89.26
70781;BME280;72716;48.814;2.126;2024-03-07T15:00:27;99953.66;;;14.70;91.62
70781;BME280;72716;48.814;2.126;2024-03-07T15:02:53;99964.03;;;15.11;84.90
70781;BME280;72716;48.814;2.126;2024-03-07T15:05:23;99951.19;;;15.00;84.99
70781;BME280;72716;48.814;2.126;2024-03-07T15:07:52;99955.94;;;14.86;87.35
70781;BME280;72716;48.814;2.126;2024-03-07T15:10:26;99955.19;;;14.44;83.92
70781;BME280;72716;48.814;2.126;2024-03-07T15:12:53;99946.88;;;14.61;85.96
70781;BME280;72716;48.814;2.126;2024-03-07T15:15:19;99945.00;;;15.01;84.93
70781;BME280;72716;48.814;2.126;2024-03-07T15:17:48;99949.16;;;14.39;87.88
70781;BME280;72716;48.814;2.126;2024-03-07T15:20:14;99945.91;;;15.00;88.05
70781;BME280;72716;48.814;2.126;2024-03-07T15:22:52;99938.28;;;14.89;83.33
70781;BME280;72716;48.814;2.126;2024-03-07T15:25:18;99932.78;;;14.64;85.71
70781;BME280;72716;48.814;2.126;2024-03-07T15:27:44;99933.75;;;14.60;92.34
70781;BME280;72716;48.814;2.126;2024-03-07T15:30:14;99927.88;;;14.12;90.99
70781;BME280;72716;48.814;2.126;2024-03-07T15:32:41;99919.66;;;13.88;96.71
70781;BME280;72716;48.814;2.126;2024-03-07T15:35:08;99918.91;;;13.82;95.32
70781;BME280;72716;48.814;2.126;2024-03-07T15:37:39;99917.88;;;13.47;96.49
70781;BME280;72716;48.814;2.126;2024-03-07T15:40:07;99910.44;;;13.23;99.77
70781;BME280;72716;48.814;2.126;2024-03-07T15:42:37;99910.19;;;12.92;100.00
70781;BME280;72716;48.814;2.126;2024-03-07T15:45:05;99910.91;;;13.00;100.00
70781;BME280;72716;48.814;2.126;2024-03-07T15:47:37;99909.53;;;12.79;100.00
70781;BME280;72716;48.814;2.126;2024-03-07T15:50:05;99909.50;;;12.82;100.00
70781;BME280;72716;48.814;2.126;2024-03-07T15:52:30;99907.41;;;12.52;100.00
70781;BME280;72716;48.814;2.126;2024-03-07T15:55:00;99904.06;;;12.41;100.00
70781;BME280;72716;48.814;2.126;2024-03-07T15:57:25;99894.47;;;12.40;100.00
70781;BME280;72716;48.814;2.126;2024-03-07T15:59:52;99896.53;;;12.20;100.00
70781;BME280;72716;48.814;2.126;2024-03-07T16:02:19;99892.06;;;12.27;100.00
70781;BME280;72716;48.814;2.126;2024-03-07T16:04:47;99885.16;;;12.23;100.00
70781;BME280;72716;48.814;2.126;2024-03-07T16:07:12;99887.19;;;12.02;100.00
70781;BME280;72716;48.814;2.126;2024-03-07T16:09:38;99886.59;;;11.83;100.00
70781;BME280;72716;48.814;2.126;2024-03-07T16:12:03;99884.38;;;12.16;100.00
70781;BME280;72716;48.814;2.126;2024-03-07T16:14:30;99885.78;;;12.37;100.00
70781;BME280;72716;48.814;2.126;2024-03-07T16:16:55;99880.44;;;12.42;100.00
70781;BME280;72716;48.814;2.126;2024-03-07T16:19:21;99878.72;;;12.41;100.00
70781;BME280;72716;48.814;2.126;2024-03-07T16:21:47;99880.56;;;12.36;100.00
70781;BME280;72716;48.814;2.126;2024-03-07T16:24:14;99880.13;;;12.59;100.00
70781;BME280;72716;48.814;2.126;2024-03-07T16:26:40;99881.41;;;12.85;100.00
70781;BME280;72716;48.814;2.126;2024-03-07T16:29:05;99886.31;;;13.04;100.00
70781;BME280;72716;48.814;2.126;2024-03-07T16:31:30;99868.66;;;13.11;100.00
70781;BME280;72716;48.814;2.126;2024-03-07T16:33:56;99865.81;;;12.27;100.00
70781;BME280;72716;48.814;2.126;2024-03-07T16:36:22;99869.84;;;12.48;100.00
70781;BME280;72716;48.814;2.126;2024-03-07T16:38:47;99870.41;;;12.65;100.00
70781;BME280;72716;48.814;2.126;2024-03-07T16:41:12;99860.53;;;12.79;100.00
70781;BME280;72716;48.814;2.126;2024-03-07T16:43:38;99864.50;;;13.01;100.00
70781;BME280;72716;48.814;2.126;2024-03-07T16:46:04;99859.91;;;13.12;100.00
70781;BME280;72716;48.814;2.126;2024-03-07T16:48:30;99856.13;;;12.81;100.00
70781;BME280;72716;48.814;2.126;2024-03-07T16:50:55;99860.81;;;12.63;100.00
70781;BME280;72716;48.814;2.126;2024-03-07T16:53:21;99854.88;;;12.54;100.00
70781;BME280;72716;48.814;2.126;2024-03-07T16:55:48;99855.50;;;12.18;100.00
70781;BME280;72716;48.814;2.126;2024-03-07T16:58:13;99861.56;;;12.20;100.00
70781;BME280;72716;48.814;2.126;2024-03-07T17:00:41;99853.88;;;12.10;100.00
70781;BME280;72716;48.814;2.126;2024-03-07T17:03:08;99853.88;;;12.07;100.00
70781;BME280;72716;48.814;2.126;2024-03-07T17:05:38;99856.72;;;11.93;100.00
70781;BME280;72716;48.814;2.126;2024-03-07T17:08:08;99848.44;;;11.61;100.00
70781;BME280;72716;48.814;2.126;2024-03-07T17:10:37;99847.63;;;11.59;100.00
70781;BME280;72716;48.814;2.126;2024-03-07T17:13:06;99847.78;;;11.47;100.00
70781;BME280;72716;48.814;2.126;2024-03-07T17:15:34;99847.03;;;11.38;100.00
70781;BME280;72716;48.814;2.126;2024-03-07T17:18:00;99844.63;;;11.23;100.00
70781;BME280;72716;48.814;2.126;2024-03-07T17:20:26;99844.53;;;11.29;100.00
70781;BME280;72716;48.814;2.126;2024-03-07T17:22:52;99842.97;;;11.15;100.00
70781;BME280;72716;48.814;2.126;2024-03-07T17:25:19;99842.16;;;11.09;100.00
70781;BME280;72716;48.814;2.126;2024-03-07T17:27:46;99839.47;;;11.13;100.00
70781;BME280;72716;48.814;2.126;2024-03-07T17:30:23;99838.66;;;11.08;100.00
70781;BME280;72716;48.814;2.126;2024-03-07T17:32:50;99847.53;;;10.98;100.00
70781;BME280;72716;48.814;2.126;2024-03-07T17:35:16;99841.63;;;10.80;100.00
70781;BME280;72716;48.814;2.126;2024-03-07T17:37:48;99847.72;;;10.80;100.00
70781;BME280;72716;48.814;2.126;2024-03-07T17:40:15;99846.84;;;10.83;100.00
70781;BME280;72716;48.814;2.126;2024-03-07T17:42:45;99840.69;;;10.86;100.00
70781;BME280;72716;48.814;2.126;2024-03-07T17:45:23;99838.22;;;10.75;100.00
70781;BME280;72716;48.814;2.126;2024-03-07T17:47:50;99850.50;;;10.63;100.00
70781;BME280;72716;48.814;2.126;2024-03-07T17:50:20;99844.50;;;10.55;100.00
70781;BME280;72716;48.814;2.126;2024-03-07T17:52:48;99834.94;;;10.54;100.00
70781;BME280;72716;48.814;2.126;2024-03-07T17:55:14;99835.03;;;10.40;100.00
70781;BME280;72716;48.814;2.126;2024-03-07T17:57:42;99849.03;;;10.34;100.00
70781;BME280;72716;48.814;2.126;2024-03-07T18:00:09;99840.31;;;10.32;100.00
70781;BME280;72716;48.814;2.126;2024-03-07T18:02:44;99841.22;;;10.31;100.00
70781;BME280;72716;48.814;2.126;2024-03-07T18:05:14;99847.34;;;10.30;100.00
70781;BME280;72716;48.814;2.126;2024-03-07T18:07:43;99842.09;;;10.30;100.00
70781;BME280;72716;48.814;2.126;2024-03-07T18:10:09;99836.97;;;10.17;100.00
70781;BME280;72716;48.814;2.126;2024-03-07T18:12:45;99830.00;;;10.18;100.00
70781;BME280;72716;48.814;2.126;2024-03-07T18:15:16;99827.44;;;10.12;100.00
70781;BME280;72716;48.814;2.126;2024-03-07T18:17:41;99826.59;;;10.06;100.00
70781;BME280;72716;48.814;2.126;2024-03-07T18:20:07;99821.44;;;9.99;100.00
70781;BME280;72716;48.814;2.126;2024-03-07T18:22:37;99824.94;;;10.01;100.00
70781;BME280;72716;48.814;2.126;2024-03-07T18:25:03;99819.69;;;9.98;100.00
70781;BME280;72716;48.814;2.126;2024-03-07T18:27:29;99817.97;;;9.96;100.00
70781;BME280;72716;48.814;2.126;2024-03-07T18:29:54;99813.53;;;10.05;100.00
70781;BME280;72716;48.814;2.126;2024-03-07T18:32:24;99821.53;;;9.86;100.00
70781;BME280;72716;48.814;2.126;2024-03-07T18:34:49;99817.19;;;9.87;100.00
70781;BME280;72716;48.814;2.126;2024-03-07T18:37:15;99815.44;;;9.84;100.00
70781;BME280;72716;48.814;2.126;2024-03-07T18:39:40;99814.56;;;9.88;100.00
70781;BME280;72716;48.814;2.126;2024-03-07T18:42:08;99809.38;;;9.85;100.00
70781;BME280;72716;48.814;2.126;2024-03-07T18:44:33;99815.44;;;9.86;100.00
70781;BME280;72716;48.814;2.126;2024-03-07T18:46:59;99811.16;;;9.80;100.00
70781;BME280;72716;48.814;2.126;2024-03-07T18:49:33;99805.09;;;9.75;100.00
70781;BME280;72716;48.814;2.126;2024-03-07T18:51:59;99805.97;;;9.69;100.00
70781;BME280;72716;48.814;2.126;2024-03-07T18:54:25;99811.22;;;9.67;100.00
70781;BME280;72716;48.814;2.126;2024-03-07T18:56:51;99805.97;;;9.69;100.00
70781;BME280;72716;48.814;2.126;2024-03-07T18:59:18;99806.06;;;9.61;100.00
70781;BME280;72716;48.814;2.126;2024-03-07T19:01:45;99808.66;;;9.59;100.00
70781;BME280;72716;48.814;2.126;2024-03-07T19:04:10;99794.75;;;9.53;100.00
70781;BME280;72716;48.814;2.126;2024-03-07T19:06:39;99797.44;;;9.46;100.00
70781;BME280;72716;48.814;2.126;2024-03-07T19:09:05;99801.75;;;9.47;100.00
70781;BME280;72716;48.814;2.126;2024-03-07T19:11:46;99795.69;;;9.42;100.00
70781;BME280;72716;48.814;2.126;2024-03-07T19:14:13;99789.63;;;9.43;100.00
70781;BME280;72716;48.814;2.126;2024-03-07T19:16:39;99791.34;;;9.46;100.00
70781;BME280;72716;48.814;2.126;2024-03-07T19:19:06;99791.41;;;9.38;100.00
70781;BME280;72716;48.814;2.126;2024-03-07T19:21:33;99786.22;;;9.33;100.00
70781;BME280;72716;48.814;2.126;2024-03-07T19:23:58;99780.16;;;9.27;100.00
70781;BME280;72716;48.814;2.126;2024-03-07T19:26:25;99785.34;;;9.31;100.00
70781;BME280;72716;48.814;2.126;2024-03-07T19:28:51;99787.13;;;9.25;100.00
70781;BME280;72716;48.814;2.126;2024-03-07T19:31:16;99774.94;;;9.22;100.00
70781;BME280;72716;48.814;2.126;2024-03-07T19:33:42;99781.91;;;9.18;100.00
70781;BME280;72716;48.814;2.126;2024-03-07T19:36:10;99780.22;;;9.14;100.00
70781;BME280;72716;48.814;2.126;2024-03-07T19:38:38;99778.47;;;9.10;100.00
70781;BME280;72716;48.814;2.126;2024-03-07T19:41:06;99774.16;;;9.10;100.00
70781;BME280;72716;48.814;2.126;2024-03-07T19:43:35;99775.03;;;9.05;100.00
70781;BME280;72716;48.814;2.126;2024-03-07T19:46:00;99769.81;;;9.03;100.00
70781;BME280;72716;48.814;2.126;2024-03-07T19:48:26;99768.09;;;9.04;100.00
70781;BME280;72716;48.814;2.126;2024-03-07T19:50:52;99768.97;;;9.06;100.00
70781;BME280;72716;48.814;2.126;2024-03-07T19:53:20;99768.09;;;9.05;100.00
70781;BME280;72716;48.814;2.126;2024-03-07T19:55:46;99768.13;;;9.01;100.00
70781;BME280;72716;48.814;2.126;2024-03-07T19:58:12;99757.66;;;9.04;100.00
70781;BME280;72716;48.814;2.126;2024-03-07T20:00:43;99758.53;;;9.01;100.00
70781;BME280;72716;48.814;2.126;2024-03-07T20:03:12;99759.47;;;8.86;100.00
70781;BME280;72716;48.814;2.126;2024-03-07T20:05:45;99742.09;;;8.79;100.00
70781;BME280;72716;48.814;2.126;2024-03-07T20:08:13;99745.63;;;8.74;100.00
70781;BME280;72716;48.814;2.126;2024-03-07T20:10:39;99748.16;;;8.84;100.00
70781;BME280;72716;48.814;2.126;2024-03-07T20:13:07;99736.88;;;8.79;100.00
70781;BME280;72716;48.814;2.126;2024-03-07T20:15:34;99735.16;;;8.78;100.00
70781;BME280;72716;48.814;2.126;2024-03-07T20:18:02;99729.97;;;8.74;100.00
70781;BME280;72716;48.814;2.126;2024-03-07T20:20:29;99729.97;;;8.71;100.00
70781;BME280;72716;48.814;2.126;2024-03-07T20:22:57;99720.41;;;8.69;100.00
70781;BME280;72716;48.814;2.126;2024-03-07T20:25:25;99725.66;;;8.67;100.00
70781;BME280;72716;48.814;2.126;2024-03-07T20:27:52;99728.25;;;8.66;100.00
70781;BME280;72716;48.814;2.126;2024-03-07T20:30:19;99728.25;;;8.67;100.00
70781;BME280;72716;48.814;2.126;2024-03-07T20:32:49;99731.75;;;8.65;100.00
70781;BME280;72716;48.814;2.126;2024-03-07T20:35:18;99728.28;;;8.61;100.00
70781;BME280;72716;48.814;2.126;2024-03-07T20:37:46;99726.53;;;8.60;100.00
70781;BME280;72716;48.814;2.126;2024-03-07T20:40:14;99729.16;;;8.58;100.00
70781;BME280;72716;48.814;2.126;2024-03-07T20:42:41;99728.28;;;8.61;100.00
70781;BME280;72716;48.814;2.126;2024-03-07T20:45:08;99723.94;;;8.58;100.00
70781;BME280;72716;48.814;2.126;2024-03-07T20:47:35;99723.94;;;8.60;100.00
70781;BME280;72716;48.814;2.126;2024-03-07T20:50:01;99723.94;;;8.55;100.00
70781;BME280;72716;48.814;2.126;2024-03-07T20:52:30;99709.16;;;8.53;100.00
70781;BME280;72716;48.814;2.126;2024-03-07T20:54:57;99711.75;;;8.49;100.00
70781;BME280;72716;48.814;2.126;2024-03-07T20:57:24;99706.59;;;8.43;100.00
70781;BME280;72716;48.814;2.126;2024-03-07T20:59:49;99715.25;;;8.41;100.00
70781;BME280;72716;48.814;2.126;2024-03-07T21:02:17;99711.84;;;8.35;100.00
70781;BME280;72716;48.814;2.126;2024-03-07T21:04:42;99712.69;;;8.33;100.00
70781;BME280;72716;48.814;2.126;2024-03-07T21:07:07;99704.06;;;8.21;100.00
70781;BME280;72716;48.814;2.126;2024-03-07T21:09:36;99701.47;;;8.20;100.00
70781;BME280;72716;48.814;2.126;2024-03-07T21:12:01;99698.84;;;8.21;100.00
70781;BME280;72716;48.814;2.126;2024-03-07T21:14:27;99704.03;;;8.17;100.00
70781;BME280;72716;48.814;2.126;2024-03-07T21:16:54;99711.88;;;8.13;100.00
70781;BME280;72716;48.814;2.126;2024-03-07T21:19:19;99695.41;;;8.04;100.00
70781;BME280;72716;48.814;2.126;2024-03-07T21:21:45;99691.94;;;8.03;100.00
70781;BME280;72716;48.814;2.126;2024-03-07T21:24:10;99685.88;;;8.02;100.00
70781;BME280;72716;48.814;2.126;2024-03-07T21:26:35;99684.16;;;7.92;100.00
70781;BME280;72716;48.814;2.126;2024-03-07T21:29:01;99691.97;;;7.86;100.00
70781;BME280;72716;48.814;2.126;2024-03-07T21:31:26;99683.28;;;7.87;100.00
70781;BME280;72716;48.814;2.126;2024-03-07T21:33:51;99690.25;;;7.82;100.00
70781;BME280;72716;48.814;2.126;2024-03-07T21:36:17;99689.38;;;7.75;100.00
70781;BME280;72716;48.814;2.126;2024-03-07T21:38:44;99688.50;;;7.71;100.00
70781;BME280;72716;48.814;2.126;2024-03-07T21:41:11;99684.16;;;7.70;100.00
70781;BME280;72716;48.814;2.126;2024-03-07T21:43:39;99684.16;;;7.72;100.00
70781;BME280;72716;48.814;2.126;2024-03-07T21:46:05;99678.09;;;7.67;100.00
70781;BME280;72716;48.814;2.126;2024-03-07T21:48:31;99686.78;;;7.61;100.00
70781;BME280;72716;48.814;2.126;2024-03-07T21:50:57;99685.94;;;7.54;100.00
70781;BME280;72716;48.814;2.126;2024-03-07T21:53:27;99685.06;;;7.53;100.00
70781;BME280;72716;48.814;2.126;2024-03-07T21:55:56;99687.66;;;7.55;100.00
70781;BME280;72716;48.814;2.126;2024-03-07T21:58:27;99687.66;;;7.52;100.00
70781;BME280;72716;48.814;2.126;2024-03-07T22:00:52;99689.38;;;7.47;100.00
70781;BME280;72716;48.814;2.126;2024-03-07T22:03:18;99685.06;;;7.50;100.00
70781;BME280;72716;48.814;2.126;2024-03-07T22:05:44;99680.69;;;7.48;100.00
70781;BME280;72716;48.814;2.126;2024-03-07T22:08:09;99682.47;;;7.47;100.00
70781;BME280;72716;48.814;2.126;2024-03-07T22:10:34;99677.25;;;7.39;100.00
70781;BME280;72716;48.814;2.126;2024-03-07T22:13:00;99678.13;;;7.40;100.00
70781;BME280;72716;48.814;2.126;2024-03-07T22:15:25;99677.25;;;7.47;100.00
70781;BME280;72716;48.814;2.126;2024-03-07T22:17:51;99673.78;;;7.42;100.00
70781;BME280;72716;48.814;2.126;2024-03-07T22:20:17;99669.41;;;7.44;100.00
70781;BME280;72716;48.814;2.126;2024-03-07T22:22:43;99670.28;;;7.46;100.00
70781;BME280;72716;48.814;2.126;2024-03-07T22:25:09;99666.84;;;7.47;100.00
70781;BME280;72716;48.814;2.126;2024-03-07T22:27:37;99659.00;;;7.41;100.00
70781;BME280;72716;48.814;2.126;2024-03-07T22:30:04;99659.00;;;7.41;100.00
70781;BME280;72716;48.814;2.126;2024-03-07T22:32:34;99659.03;;;7.35;100.00
70781;BME280;72716;48.814;2.126;2024-03-07T22:35:04;99651.22;;;7.32;100.00
70781;BME280;72716;48.814;2.126;2024-03-07T22:37:41;99648.59;;;7.22;100.00
70781;BME280;72716;48.814;2.126;2024-03-07T22:40:13;99660.75;;;7.14;100.00
70781;BME280;72716;48.814;2.126;2024-03-07T22:42:42;99654.66;;;7.12;100.00
70781;BME280;72716;48.814;2.126;2024-03-07T22:45:11;99659.03;;;7.11;100.00
70781;BME280;72716;48.814;2.126;2024-03-07T22:47:42;99654.69;;;7.02;100.00
70781;BME280;72716;48.814;2.126;2024-03-07T22:50:09;99659.88;;;7.04;100.00
70781;BME280;72716;48.814;2.126;2024-03-07T22:52:37;99654.66;;;6.98;100.00
70781;BME280;72716;48.814;2.126;2024-03-07T22:55:03;99646.84;;;6.95;100.00
70781;BME280;72716;48.814;2.126;2024-03-07T22:57:31;99650.31;;;6.92;100.00
70781;BME280;72716;48.814;2.126;2024-03-07T22:59:58;99643.41;;;6.96;100.00
70781;BME280;72716;48.814;2.126;2024-03-07T23:02:24;99634.69;;;6.87;100.00
70781;BME280;72716;48.814;2.126;2024-03-07T23:04:49;99642.50;;;6.84;100.00
70781;BME280;72716;48.814;2.126;2024-03-07T23:07:19;99638.16;;;6.80;100.00
70781;BME280;72716;48.814;2.126;2024-03-07T23:09:45;99638.16;;;6.78;100.00
70781;BME280;72716;48.814;2.126;2024-03-07T23:12:12;99638.13;;;6.75;100.00
70781;BME280;72716;48.814;2.126;2024-03-07T23:14:37;99628.63;;;6.76;100.00
70781;BME280;72716;48.814;2.126;2024-03-07T23:17:04;99620.81;;;6.74;100.00
70781;BME280;72716;48.814;2.126;2024-03-07T23:19:30;99619.06;;;6.65;100.00
70781;BME280;72716;48.814;2.126;2024-03-07T23:21:56;99614.75;;;6.60;100.00
70781;BME280;72716;48.814;2.126;2024-03-07T23:24:22;99604.31;;;6.58;100.00
70781;BME280;72716;48.814;2.126;2024-03-07T23:26:47;99606.91;;;6.52;100.00
70781;BME280;72716;48.814;2.126;2024-03-07T23:29:20;99604.31;;;6.49;100.00
70781;BME280;72716;48.814;2.126;2024-03-07T23:31:45;99601.72;;;6.47;100.00
70781;BME280;72716;48.814;2.126;2024-03-07T23:34:11;99595.63;;;6.48;100.00
70781;BME280;72716;48.814;2.126;2024-03-07T23:36:40;99597.38;;;6.48;100.00
70781;BME280;72716;48.814;2.126;2024-03-07T23:39:09;99590.44;;;6.45;100.00
70781;BME280;72716;48.814;2.126;2024-03-07T23:41:36;99585.22;;;6.37;100.00
70781;BME280;72716;48.814;2.126;2024-03-07T23:44:03;99587.78;;;6.36;100.00
70781;BME280;72716;48.814;2.126;2024-03-07T23:46:31;99585.19;;;6.36;100.00
70781;BME280;72716;48.814;2.126;2024-03-07T23:48:57;99583.47;;;6.31;100.00
70781;BME280;72716;48.814;2.126;2024-03-07T23:51:23;99579.13;;;6.26;100.00
70781;BME280;72716;48.814;2.126;2024-03-07T23:53:49;99578.22;;;6.24;100.00
70781;BME280;72716;48.814;2.126;2024-03-07T23:56:14;99573.91;;;6.21;100.00
70781;BME280;72716;48.814;2.126;2024-03-07T23:58:39;99570.44;;;6.17;100.00
